Arapahoe, CO

2:26 AM MDT on August 22, 2014 (GMT -0600)
KWS | Change Station
CLOSE
Current Station
Personal Weather Station
Location: Cheyenne Wells, CO
Elevation: 4252 ft
Nearby Weather Stations

Elev 4252 ft 38.82 °N, 102.33 °W | Updated 12 seconds ago

Scattered Clouds
Scattered Clouds
68.1 °F
Feels Like 68.1 °F
N
3.0
Wind Variable Wind from East
Gusts 4.0 mph

Today
High -- | Low -- °F
--% Chance of Precip.
Yesterday
High -- | Low -- °F
Precip. -- in
6:08 AM 7:33 PM
Waning Crescent, 9% visible
Pressure 29.86 in
Visibility 10.0 miles
Clouds Scattered Clouds 9000 ft
Dew Point 55 °F
Humidity 62%
Rainfall 0.00 in
Snow Depth Not available.
UV 0 out of 12
Pollen 9.80 out of 12
Air Quality Not available.
Flu Activity Not available.
METAR KITR 220753Z AUTO 05005KT 10SM SCT090 21/11 A3004 RMK AO2 SLP110 T02060106

More Conditions Fewer Conditions

Pressure 29.86 in
Visibility 10.0 miles
Clouds Scattered Clouds 9000 ft
Dew Point 55 °F
Humidity 62%
Rainfall 0.00 in
Snow Depth Not available.
UV 0 out of 12
Pollen 9.80 out of 12
Air Quality Not available.
Flu Activity Not available.
METAR KITR 220753Z AUTO 05005KT 10SM SCT090 21/11 A3004 RMK AO2 SLP110 T02060106

More Conditions Fewer Conditions

10-Day Weather Forecast

Almanac

Astronomy

Aug. 22, 2014 Rise Set
Actual Time 6:08 AM MDT 7:33 PM MDT
Civil Twilight 5:40 AM MDT 8:01 PM MDT
Nautical Twilight 5:07 AM MDT 8:35 PM MDT
Astronomical Twilight 4:31 AM MDT 9:10 PM MDT
Moon 3:34 AM MDT 5:43 PM MDT
Length of Visible Light 14h 20m
Length of Day
13h 25m
Tomorrow will be 2m 21s shorter.
Waning Crescent, 9% of the Moon is Illuminated
Today
Waning Crescent
Aug 25
New
Sep 2
First Quarter
Sep 8
Full
Sep 15
Last Quarter

Today's Extremes

State Highs State Lows

Community

WunderPhotos

Upload Photos

1,746,144 photos uploaded!

Nearby

Snow Depth

Station Depth Elevation
Glen Cove 0 in 11460 ft
Echo Lake 0 in 10600 ft
Medano Pass 0 in 9620 ft
South Colony 0 in 10800 ft
Ute Creek 0 in 10650 ft

Earthquake Activity

City Distance Mag. Time & Date
No recent earthquake activity has been reported nearby.
Minimum magnitude displayed is 2.5.

Coastal Water Temperatures

Place Temperature
No Stations Reporting

Nearby Weather Stations